sensor_id;sensor_type;location;lat;lon;timestamp;P1;durP1;ratioP1;P2;durP2;ratioP2
8656;SDS011;4366;50.764;7.184;2023-06-22T00:02:37;3.83;;;3.42;;
8656;SDS011;4366;50.764;7.184;2023-06-22T00:07:38;3.67;;;3.38;;
8656;SDS011;4366;50.764;7.184;2023-06-22T00:12:40;4.57;;;3.35;;
8656;SDS011;4366;50.764;7.184;2023-06-22T00:17:42;3.35;;;3.05;;
8656;SDS011;4366;50.764;7.184;2023-06-22T00:22:44;3.13;;;2.83;;
8656;SDS011;4366;50.764;7.184;2023-06-22T00:27:46;3.35;;;3.05;;
8656;SDS011;4366;50.764;7.184;2023-06-22T00:32:47;3.88;;;3.35;;
8656;SDS011;4366;50.764;7.184;2023-06-22T00:37:52;4.30;;;3.45;;
8656;SDS011;4366;50.764;7.184;2023-06-22T00:42:58;3.83;;;3.30;;
8656;SDS011;4366;50.764;7.184;2023-06-22T00:48:00;3.90;;;3.60;;
8656;SDS011;4366;50.764;7.184;2023-06-22T00:53:03;3.72;;;3.42;;
8656;SDS011;4366;50.764;7.184;2023-06-22T00:58:10;3.10;;;2.78;;
8656;SDS011;4366;50.764;7.184;2023-06-22T01:03:12;3.65;;;3.35;;
8656;SDS011;4366;50.764;7.184;2023-06-22T01:19:01;3.30;;;3.03;;
8656;SDS011;4366;50.764;7.184;2023-06-22T01:24:28;3.65;;;3.35;;
8656;SDS011;4366;50.764;7.184;2023-06-22T01:29:37;3.65;;;3.35;;
8656;SDS011;4366;50.764;7.184;2023-06-22T01:34:40;3.50;;;3.20;;
8656;SDS011;4366;50.764;7.184;2023-06-22T01:39:42;3.50;;;3.20;;
8656;SDS011;4366;50.764;7.184;2023-06-22T01:44:43;4.13;;;3.63;;
8656;SDS011;4366;50.764;7.184;2023-06-22T01:49:46;3.40;;;3.10;;
8656;SDS011;4366;50.764;7.184;2023-06-22T01:54:47;3.30;;;3.00;;
8656;SDS011;4366;50.764;7.184;2023-06-22T01:59:56;3.50;;;3.20;;
8656;SDS011;4366;50.764;7.184;2023-06-22T02:05:11;3.90;;;3.50;;
8656;SDS011;4366;50.764;7.184;2023-06-22T02:10:14;3.33;;;3.03;;
8656;SDS011;4366;50.764;7.184;2023-06-22T02:15:17;4.18;;;3.78;;
8656;SDS011;4366;50.764;7.184;2023-06-22T02:20:20;3.90;;;3.50;;
8656;SDS011;4366;50.764;7.184;2023-06-22T02:25:22;3.53;;;3.22;;
8656;SDS011;4366;50.764;7.184;2023-06-22T02:30:24;3.35;;;3.13;;
8656;SDS011;4366;50.764;7.184;2023-06-22T02:35:29;3.40;;;3.10;;
8656;SDS011;4366;50.764;7.184;2023-06-22T02:40:37;3.92;;;3.35;;
8656;SDS011;4366;50.764;7.184;2023-06-22T02:45:38;3.80;;;3.50;;
8656;SDS011;4366;50.764;7.184;2023-06-22T02:50:40;3.10;;;2.90;;
8656;SDS011;4366;50.764;7.184;2023-06-22T02:55:42;3.70;;;3.40;;
8656;SDS011;4366;50.764;7.184;2023-06-22T03:00:44;3.80;;;3.40;;
8656;SDS011;4366;50.764;7.184;2023-06-22T03:05:45;3.35;;;2.97;;
8656;SDS011;4366;50.764;7.184;2023-06-22T03:10:47;3.80;;;3.50;;
8656;SDS011;4366;50.764;7.184;2023-06-22T03:15:49;3.80;;;3.47;;
8656;SDS011;4366;50.764;7.184;2023-06-22T03:20:51;4.17;;;3.67;;
8656;SDS011;4366;50.764;7.184;2023-06-22T03:25:52;3.97;;;3.63;;
8656;SDS011;4366;50.764;7.184;2023-06-22T03:30:57;3.93;;;3.53;;
8656;SDS011;4366;50.764;7.184;2023-06-22T03:35:59;3.77;;;3.47;;
8656;SDS011;4366;50.764;7.184;2023-06-22T03:41:01;3.72;;;3.38;;
8656;SDS011;4366;50.764;7.184;2023-06-22T03:46:04;3.75;;;3.45;;
8656;SDS011;4366;50.764;7.184;2023-06-22T03:51:06;4.78;;;3.85;;
8656;SDS011;4366;50.764;7.184;2023-06-22T03:56:08;3.80;;;3.50;;
8656;SDS011;4366;50.764;7.184;2023-06-22T04:01:10;3.70;;;3.40;;
8656;SDS011;4366;50.764;7.184;2023-06-22T04:06:12;4.10;;;3.70;;
8656;SDS011;4366;50.764;7.184;2023-06-22T04:11:14;4.40;;;4.00;;
8656;SDS011;4366;50.764;7.184;2023-06-22T04:16:16;4.47;;;3.92;;
8656;SDS011;4366;50.764;7.184;2023-06-22T04:21:17;4.38;;;3.97;;
8656;SDS011;4366;50.764;7.184;2023-06-22T04:26:23;4.40;;;4.00;;
8656;SDS011;4366;50.764;7.184;2023-06-22T04:31:25;4.97;;;4.47;;
8656;SDS011;4366;50.764;7.184;2023-06-22T04:36:34;4.10;;;3.70;;
8656;SDS011;4366;50.764;7.184;2023-06-22T04:41:39;5.20;;;4.20;;
8656;SDS011;4366;50.764;7.184;2023-06-22T04:46:44;4.77;;;4.37;;
8656;SDS011;4366;50.764;7.184;2023-06-22T04:51:46;5.70;;;4.07;;
8656;SDS011;4366;50.764;7.184;2023-06-22T04:56:47;4.60;;;4.00;;
8656;SDS011;4366;50.764;7.184;2023-06-22T05:01:58;4.00;;;3.70;;
8656;SDS011;4366;50.764;7.184;2023-06-22T05:07:02;4.90;;;4.40;;
8656;SDS011;4366;50.764;7.184;2023-06-22T05:12:04;4.50;;;4.10;;
8656;SDS011;4366;50.764;7.184;2023-06-22T05:17:11;4.72;;;4.30;;
8656;SDS011;4366;50.764;7.184;2023-06-22T05:22:17;6.05;;;4.05;;
8656;SDS011;4366;50.764;7.184;2023-06-22T05:27:18;4.53;;;4.13;;
8656;SDS011;4366;50.764;7.184;2023-06-22T05:32:20;5.50;;;3.55;;
8656;SDS011;4366;50.764;7.184;2023-06-22T05:37:22;3.63;;;3.33;;
8656;SDS011;4366;50.764;7.184;2023-06-22T05:42:24;3.63;;;3.30;;
8656;SDS011;4366;50.764;7.184;2023-06-22T05:47:27;3.38;;;2.95;;
8656;SDS011;4366;50.764;7.184;2023-06-22T05:52:28;3.42;;;3.13;;
8656;SDS011;4366;50.764;7.184;2023-06-22T05:57:30;3.72;;;3.42;;
8656;SDS011;4366;50.764;7.184;2023-06-22T06:02:32;4.32;;;3.70;;
8656;SDS011;4366;50.764;7.184;2023-06-22T06:07:35;3.60;;;3.30;;
8656;SDS011;4366;50.764;7.184;2023-06-22T06:12:36;3.55;;;3.25;;
8656;SDS011;4366;50.764;7.184;2023-06-22T06:17:45;3.10;;;2.88;;
8656;SDS011;4366;50.764;7.184;2023-06-22T06:22:50;3.80;;;3.40;;
8656;SDS011;4366;50.764;7.184;2023-06-22T06:27:52;4.00;;;3.58;;
8656;SDS011;4366;50.764;7.184;2023-06-22T06:32:58;3.72;;;3.40;;
8656;SDS011;4366;50.764;7.184;2023-06-22T06:38:03;4.15;;;3.55;;
8656;SDS011;4366;50.764;7.184;2023-06-22T06:43:05;4.50;;;3.65;;
8656;SDS011;4366;50.764;7.184;2023-06-22T06:48:06;4.65;;;4.13;;
8656;SDS011;4366;50.764;7.184;2023-06-22T06:53:08;4.10;;;3.80;;
8656;SDS011;4366;50.764;7.184;2023-06-22T06:58:10;3.67;;;3.20;;
8656;SDS011;4366;50.764;7.184;2023-06-22T07:03:14;3.42;;;3.13;;
8656;SDS011;4366;50.764;7.184;2023-06-22T07:08:16;3.33;;;3.03;;
8656;SDS011;4366;50.764;7.184;2023-06-22T07:13:19;3.70;;;3.38;;
8656;SDS011;4366;50.764;7.184;2023-06-22T07:18:21;3.60;;;3.30;;
8656;SDS011;4366;50.764;7.184;2023-06-22T07:23:22;3.90;;;3.45;;
8656;SDS011;4366;50.764;7.184;2023-06-22T07:28:24;3.78;;;3.08;;
8656;SDS011;4366;50.764;7.184;2023-06-22T07:33:26;4.80;;;3.42;;
8656;SDS011;4366;50.764;7.184;2023-06-22T07:38:29;4.10;;;3.65;;
8656;SDS011;4366;50.764;7.184;2023-06-22T07:43:30;3.72;;;3.42;;
8656;SDS011;4366;50.764;7.184;2023-06-22T07:48:36;3.92;;;3.50;;
8656;SDS011;4366;50.764;7.184;2023-06-22T07:53:39;3.97;;;3.42;;
8656;SDS011;4366;50.764;7.184;2023-06-22T07:58:44;3.33;;;3.03;;
8656;SDS011;4366;50.764;7.184;2023-06-22T08:03:47;3.75;;;3.45;;
8656;SDS011;4366;50.764;7.184;2023-06-22T08:08:50;3.97;;;3.20;;
8656;SDS011;4366;50.764;7.184;2023-06-22T08:13:56;3.42;;;3.13;;
8656;SDS011;4366;50.764;7.184;2023-06-22T08:19:00;3.75;;;3.42;;
8656;SDS011;4366;50.764;7.184;2023-06-22T08:24:02;4.15;;;3.75;;
8656;SDS011;4366;50.764;7.184;2023-06-22T08:29:04;4.03;;;3.70;;
8656;SDS011;4366;50.764;7.184;2023-06-22T08:34:06;3.75;;;3.45;;
8656;SDS011;4366;50.764;7.184;2023-06-22T08:39:07;3.55;;;3.25;;
8656;SDS011;4366;50.764;7.184;2023-06-22T08:44:09;3.75;;;3.42;;
8656;SDS011;4366;50.764;7.184;2023-06-22T08:49:11;3.75;;;3.35;;
8656;SDS011;4366;50.764;7.184;2023-06-22T08:54:13;4.50;;;3.90;;
8656;SDS011;4366;50.764;7.184;2023-06-22T08:59:15;4.05;;;3.65;;
8656;SDS011;4366;50.764;7.184;2023-06-22T09:04:16;3.85;;;3.53;;
8656;SDS011;4366;50.764;7.184;2023-06-22T09:09:18;3.88;;;3.55;;
8656;SDS011;4366;50.764;7.184;2023-06-22T09:14:20;3.80;;;3.35;;
8656;SDS011;4366;50.764;7.184;2023-06-22T09:19:22;4.18;;;3.38;;
8656;SDS011;4366;50.764;7.184;2023-06-22T09:24:24;3.38;;;3.17;;
8656;SDS011;4366;50.764;7.184;2023-06-22T09:29:26;3.67;;;3.38;;
8656;SDS011;4366;50.764;7.184;2023-06-22T09:34:27;3.78;;;3.47;;
8656;SDS011;4366;50.764;7.184;2023-06-22T09:39:29;4.15;;;3.75;;
8656;SDS011;4366;50.764;7.184;2023-06-22T09:44:30;3.80;;;3.47;;
8656;SDS011;4366;50.764;7.184;2023-06-22T09:49:32;4.10;;;3.70;;
8656;SDS011;4366;50.764;7.184;2023-06-22T09:54:48;5.63;;;3.22;;
8656;SDS011;4366;50.764;7.184;2023-06-22T09:59:50;4.20;;;3.42;;
8656;SDS011;4366;50.764;7.184;2023-06-22T10:04:51;4.35;;;3.50;;
8656;SDS011;4366;50.764;7.184;2023-06-22T10:09:54;4.68;;;3.03;;
8656;SDS011;4366;50.764;7.184;2023-06-22T10:14:55;4.03;;;3.63;;
8656;SDS011;4366;50.764;7.184;2023-06-22T10:19:57;4.30;;;3.45;;
8656;SDS011;4366;50.764;7.184;2023-06-22T10:25:00;3.90;;;3.50;;
8656;SDS011;4366;50.764;7.184;2023-06-22T10:30:02;4.70;;;3.60;;
8656;SDS011;4366;50.764;7.184;2023-06-22T10:35:04;3.90;;;3.38;;
8656;SDS011;4366;50.764;7.184;2023-06-22T10:40:06;4.10;;;3.80;;
8656;SDS011;4366;50.764;7.184;2023-06-22T10:45:09;4.22;;;3.83;;
8656;SDS011;4366;50.764;7.184;2023-06-22T10:50:12;4.75;;;4.25;;
8656;SDS011;4366;50.764;7.184;2023-06-22T10:55:14;5.18;;;4.45;;
8656;SDS011;4366;50.764;7.184;2023-06-22T11:00:16;5.18;;;4.65;;
8656;SDS011;4366;50.764;7.184;2023-06-22T11:05:17;5.18;;;4.65;;
8656;SDS011;4366;50.764;7.184;2023-06-22T11:10:19;3.97;;;3.58;;
8656;SDS011;4366;50.764;7.184;2023-06-22T11:15:21;4.38;;;3.90;;
8656;SDS011;4366;50.764;7.184;2023-06-22T11:20:22;5.47;;;4.03;;
8656;SDS011;4366;50.764;7.184;2023-06-22T11:25:25;4.05;;;3.60;;
8656;SDS011;4366;50.764;7.184;2023-06-22T11:30:27;3.38;;;3.08;;
8656;SDS011;4366;50.764;7.184;2023-06-22T11:35:29;4.13;;;3.53;;
8656;SDS011;4366;50.764;7.184;2023-06-22T11:40:30;3.90;;;3.50;;
8656;SDS011;4366;50.764;7.184;2023-06-22T11:45:32;4.25;;;3.85;;
8656;SDS011;4366;50.764;7.184;2023-06-22T11:50:34;4.55;;;3.63;;
8656;SDS011;4366;50.764;7.184;2023-06-22T11:55:38;7.40;;;5.50;;
8656;SDS011;4366;50.764;7.184;2023-06-22T12:00:40;5.95;;;5.00;;
8656;SDS011;4366;50.764;7.184;2023-06-22T12:05:52;5.55;;;4.78;;
8656;SDS011;4366;50.764;7.184;2023-06-22T12:10:54;6.80;;;5.10;;
8656;SDS011;4366;50.764;7.184;2023-06-22T12:15:56;5.28;;;3.95;;
8656;SDS011;4366;50.764;7.184;2023-06-22T12:20:58;3.45;;;3.15;;
8656;SDS011;4366;50.764;7.184;2023-06-22T12:26:00;3.50;;;3.20;;
8656;SDS011;4366;50.764;7.184;2023-06-22T12:31:02;4.25;;;3.42;;
8656;SDS011;4366;50.764;7.184;2023-06-22T12:36:05;3.53;;;3.22;;
8656;SDS011;4366;50.764;7.184;2023-06-22T12:41:07;4.38;;;3.67;;
8656;SDS011;4366;50.764;7.184;2023-06-22T12:46:09;4.30;;;3.58;;
8656;SDS011;4366;50.764;7.184;2023-06-22T12:51:10;3.30;;;2.85;;
8656;SDS011;4366;50.764;7.184;2023-06-22T12:56:13;3.08;;;2.88;;
8656;SDS011;4366;50.764;7.184;2023-06-22T13:01:15;3.03;;;2.53;;
8656;SDS011;4366;50.764;7.184;2023-06-22T13:06:16;2.80;;;2.60;;
8656;SDS011;4366;50.764;7.184;2023-06-22T13:11:18;2.35;;;2.15;;
8656;SDS011;4366;50.764;7.184;2023-06-22T13:16:20;1.98;;;1.77;;
8656;SDS011;4366;50.764;7.184;2023-06-22T13:21:22;2.03;;;1.92;;
8656;SDS011;4366;50.764;7.184;2023-06-22T13:26:24;1.60;;;1.50;;
8656;SDS011;4366;50.764;7.184;2023-06-22T13:31:26;2.10;;;1.90;;
8656;SDS011;4366;50.764;7.184;2023-06-22T13:36:29;1.83;;;1.73;;
8656;SDS011;4366;50.764;7.184;2023-06-22T13:41:32;2.55;;;2.33;;
8656;SDS011;4366;50.764;7.184;2023-06-22T13:46:33;1.50;;;1.40;;
8656;SDS011;4366;50.764;7.184;2023-06-22T13:51:36;1.60;;;1.50;;
8656;SDS011;4366;50.764;7.184;2023-06-22T13:56:37;2.13;;;1.92;;
8656;SDS011;4366;50.764;7.184;2023-06-22T14:01:39;2.10;;;1.92;;
8656;SDS011;4366;50.764;7.184;2023-06-22T14:06:42;2.22;;;2.13;;
8656;SDS011;4366;50.764;7.184;2023-06-22T14:11:44;2.50;;;2.30;;
8656;SDS011;4366;50.764;7.184;2023-06-22T14:16:45;2.08;;;1.98;;
8656;SDS011;4366;50.764;7.184;2023-06-22T14:21:47;2.50;;;2.08;;
8656;SDS011;4366;50.764;7.184;2023-06-22T14:26:49;3.15;;;2.20;;
8656;SDS011;4366;50.764;7.184;2023-06-22T14:31:51;4.03;;;3.08;;
8656;SDS011;4366;50.764;7.184;2023-06-22T14:36:53;3.42;;;2.97;;
8656;SDS011;4366;50.764;7.184;2023-06-22T14:41:55;4.38;;;3.15;;
8656;SDS011;4366;50.764;7.184;2023-06-22T14:46:57;3.22;;;2.95;;
8656;SDS011;4366;50.764;7.184;2023-06-22T14:51:59;4.93;;;3.17;;
8656;SDS011;4366;50.764;7.184;2023-06-22T14:57:01;3.75;;;3.30;;
8656;SDS011;4366;50.764;7.184;2023-06-22T15:02:02;4.07;;;3.42;;
8656;SDS011;4366;50.764;7.184;2023-06-22T15:07:04;3.78;;;3.40;;
8656;SDS011;4366;50.764;7.184;2023-06-22T15:12:06;4.13;;;3.63;;
8656;SDS011;4366;50.764;7.184;2023-06-22T15:17:12;3.67;;;3.20;;
8656;SDS011;4366;50.764;7.184;2023-06-22T15:22:16;4.90;;;3.33;;
8656;SDS011;4366;50.764;7.184;2023-06-22T15:27:20;4.10;;;3.70;;
8656;SDS011;4366;50.764;7.184;2023-06-22T15:32:22;4.43;;;3.13;;
8656;SDS011;4366;50.764;7.184;2023-06-22T15:37:24;3.70;;;3.40;;
8656;SDS011;4366;50.764;7.184;2023-06-22T15:42:26;4.05;;;3.75;;
8656;SDS011;4366;50.764;7.184;2023-06-22T15:47:27;3.30;;;3.00;;
8656;SDS011;4366;50.764;7.184;2023-06-22T15:52:29;4.13;;;3.20;;
8656;SDS011;4366;50.764;7.184;2023-06-22T15:57:30;4.28;;;3.78;;
8656;SDS011;4366;50.764;7.184;2023-06-22T16:02:32;3.47;;;3.17;;
8656;SDS011;4366;50.764;7.184;2023-06-22T16:07:34;3.17;;;2.90;;
8656;SDS011;4366;50.764;7.184;2023-06-22T16:12:36;3.63;;;3.05;;
8656;SDS011;4366;50.764;7.184;2023-06-22T16:17:38;3.47;;;3.17;;
8656;SDS011;4366;50.764;7.184;2023-06-22T16:22:40;2.80;;;2.40;;
8656;SDS011;4366;50.764;7.184;2023-06-22T16:27:43;3.38;;;3.08;;
8656;SDS011;4366;50.764;7.184;2023-06-22T16:32:49;2.60;;;2.10;;
8656;SDS011;4366;50.764;7.184;2023-06-22T16:37:55;2.55;;;2.20;;
8656;SDS011;4366;50.764;7.184;2023-06-22T16:42:57;3.50;;;1.98;;
8656;SDS011;4366;50.764;7.184;2023-06-22T16:47:59;2.33;;;1.70;;
8656;SDS011;4366;50.764;7.184;2023-06-22T16:53:01;3.20;;;1.70;;
8656;SDS011;4366;50.764;7.184;2023-06-22T16:58:02;2.05;;;1.85;;
8656;SDS011;4366;50.764;7.184;2023-06-22T17:03:04;2.33;;;2.13;;
8656;SDS011;4366;50.764;7.184;2023-06-22T17:08:08;1.88;;;1.77;;
8656;SDS011;4366;50.764;7.184;2023-06-22T17:13:14;3.30;;;2.20;;
8656;SDS011;4366;50.764;7.184;2023-06-22T17:18:16;2.15;;;1.98;;
8656;SDS011;4366;50.764;7.184;2023-06-22T17:23:18;1.85;;;1.75;;
8656;SDS011;4366;50.764;7.184;2023-06-22T17:28:20;3.88;;;2.25;;
8656;SDS011;4366;50.764;7.184;2023-06-22T17:33:24;3.95;;;2.53;;
8656;SDS011;4366;50.764;7.184;2023-06-22T17:38:26;2.47;;;2.28;;
8656;SDS011;4366;50.764;7.184;2023-06-22T17:43:28;2.28;;;2.17;;
8656;SDS011;4366;50.764;7.184;2023-06-22T17:48:30;1.92;;;1.83;;
8656;SDS011;4366;50.764;7.184;2023-06-22T17:53:32;2.53;;;2.20;;
8656;SDS011;4366;50.764;7.184;2023-06-22T17:58:34;2.97;;;2.10;;
8656;SDS011;4366;50.764;7.184;2023-06-22T18:03:35;2.30;;;2.10;;
8656;SDS011;4366;50.764;7.184;2023-06-22T18:08:39;2.50;;;2.30;;
8656;SDS011;4366;50.764;7.184;2023-06-22T18:13:42;2.95;;;2.28;;
8656;SDS011;4366;50.764;7.184;2023-06-22T18:18:44;3.10;;;2.25;;
8656;SDS011;4366;50.764;7.184;2023-06-22T18:23:46;2.42;;;2.22;;
8656;SDS011;4366;50.764;7.184;2023-06-22T18:28:50;2.20;;;2.00;;
8656;SDS011;4366;50.764;7.184;2023-06-22T18:33:57;3.45;;;2.15;;
8656;SDS011;4366;50.764;7.184;2023-06-22T18:39:05;2.65;;;2.45;;
8656;SDS011;4366;50.764;7.184;2023-06-22T18:54:55;4.25;;;2.05;;
8656;SDS011;4366;50.764;7.184;2023-06-22T19:05:09;2.88;;;2.67;;
8656;SDS011;4366;50.764;7.184;2023-06-22T19:10:23;4.85;;;4.35;;
8656;SDS011;4366;50.764;7.184;2023-06-22T19:15:29;10.43;;;9.40;;
8656;SDS011;4366;50.764;7.184;2023-06-22T19:20:34;12.10;;;10.27;;
8656;SDS011;4366;50.764;7.184;2023-06-22T19:25:36;9.80;;;8.80;;
8656;SDS011;4366;50.764;7.184;2023-06-22T19:30:39;7.57;;;6.78;;
8656;SDS011;4366;50.764;7.184;2023-06-22T19:35:41;6.20;;;5.60;;
8656;SDS011;4366;50.764;7.184;2023-06-22T19:40:44;4.60;;;4.20;;
8656;SDS011;4366;50.764;7.184;2023-06-22T19:45:46;3.33;;;3.10;;
8656;SDS011;4366;50.764;7.184;2023-06-22T19:50:48;1.80;;;1.70;;
8656;SDS011;4366;50.764;7.184;2023-06-22T19:55:50;1.30;;;1.30;;
8656;SDS011;4366;50.764;7.184;2023-06-22T20:00:55;0.90;;;0.90;;
8656;SDS011;4366;50.764;7.184;2023-06-22T20:06:07;1.10;;;1.10;;
8656;SDS011;4366;50.764;7.184;2023-06-22T20:11:10;0.90;;;0.90;;
8656;SDS011;4366;50.764;7.184;2023-06-22T20:16:12;1.00;;;1.00;;
8656;SDS011;4366;50.764;7.184;2023-06-22T20:21:14;1.83;;;1.73;;
8656;SDS011;4366;50.764;7.184;2023-06-22T20:26:16;2.50;;;2.30;;
8656;SDS011;4366;50.764;7.184;2023-06-22T20:31:18;2.97;;;2.77;;
8656;SDS011;4366;50.764;7.184;2023-06-22T20:36:20;2.30;;;2.10;;
8656;SDS011;4366;50.764;7.184;2023-06-22T20:41:25;2.43;;;2.23;;
8656;SDS011;4366;50.764;7.184;2023-06-22T20:46:26;3.70;;;2.87;;
8656;SDS011;4366;50.764;7.184;2023-06-22T20:51:31;3.07;;;2.73;;
8656;SDS011;4366;50.764;7.184;2023-06-22T20:56:33;3.53;;;3.17;;
8656;SDS011;4366;50.764;7.184;2023-06-22T21:01:35;3.93;;;3.40;;
8656;SDS011;4366;50.764;7.184;2023-06-22T21:06:37;3.20;;;2.80;;
8656;SDS011;4366;50.764;7.184;2023-06-22T21:11:43;3.33;;;3.03;;
8656;SDS011;4366;50.764;7.184;2023-06-22T21:16:45;4.10;;;3.70;;
8656;SDS011;4366;50.764;7.184;2023-06-22T21:21:47;5.17;;;3.43;;
8656;SDS011;4366;50.764;7.184;2023-06-22T21:26:48;3.50;;;3.20;;
8656;SDS011;4366;50.764;7.184;2023-06-22T21:31:50;4.03;;;3.50;;
8656;SDS011;4366;50.764;7.184;2023-06-22T21:36:53;3.87;;;3.43;;
8656;SDS011;4366;50.764;7.184;2023-06-22T21:41:56;4.13;;;3.73;;
8656;SDS011;4366;50.764;7.184;2023-06-22T21:46:58;4.33;;;3.53;;
8656;SDS011;4366;50.764;7.184;2023-06-22T21:52:00;4.47;;;4.07;;
8656;SDS011;4366;50.764;7.184;2023-06-22T21:57:02;4.97;;;4.10;;
8656;SDS011;4366;50.764;7.184;2023-06-22T22:02:03;6.03;;;4.00;;
8656;SDS011;4366;50.764;7.184;2023-06-22T22:07:05;4.80;;;3.43;;
8656;SDS011;4366;50.764;7.184;2023-06-22T22:12:08;4.87;;;3.80;;
8656;SDS011;4366;50.764;7.184;2023-06-22T22:17:09;5.53;;;4.50;;
8656;SDS011;4366;50.764;7.184;2023-06-22T22:22:11;5.50;;;4.73;;
8656;SDS011;4366;50.764;7.184;2023-06-22T22:27:13;5.10;;;4.60;;
8656;SDS011;4366;50.764;7.184;2023-06-22T22:32:15;5.07;;;4.07;;
8656;SDS011;4366;50.764;7.184;2023-06-22T22:37:17;5.70;;;4.33;;
8656;SDS011;4366;50.764;7.184;2023-06-22T22:42:19;5.93;;;4.40;;
8656;SDS011;4366;50.764;7.184;2023-06-22T22:47:20;4.73;;;4.33;;
8656;SDS011;4366;50.764;7.184;2023-06-22T22:52:22;6.80;;;4.70;;
8656;SDS011;4366;50.764;7.184;2023-06-22T22:57:24;6.53;;;5.13;;
8656;SDS011;4366;50.764;7.184;2023-06-22T23:02:26;5.27;;;4.50;;
8656;SDS011;4366;50.764;7.184;2023-06-22T23:07:28;5.87;;;5.03;;
8656;SDS011;4366;50.764;7.184;2023-06-22T23:12:32;5.93;;;5.43;;
8656;SDS011;4366;50.764;7.184;2023-06-22T23:17:33;6.50;;;5.00;;
8656;SDS011;4366;50.764;7.184;2023-06-22T23:22:36;5.23;;;4.73;;
8656;SDS011;4366;50.764;7.184;2023-06-22T23:27:38;5.30;;;4.80;;
8656;SDS011;4366;50.764;7.184;2023-06-22T23:32:40;4.73;;;4.23;;
8656;SDS011;4366;50.764;7.184;2023-06-22T23:37:42;4.20;;;3.80;;
8656;SDS011;4366;50.764;7.184;2023-06-22T23:42:48;3.97;;;3.47;;
8656;SDS011;4366;50.764;7.184;2023-06-22T23:47:49;3.93;;;3.63;;
8656;SDS011;4366;50.764;7.184;2023-06-22T23:52:51;4.10;;;3.70;;
8656;SDS011;4366;50.764;7.184;2023-06-22T23:57:53;4.27;;;3.87;;
